Time;durP1;ratioP1;P1;durP2;ratioP2;P2;SDS_P1;SDS_P2;PMS_P1;PMS_P2;Temp;Humidity;BMP_temperature;BMP_pressure;BME280_temperature;BME280_humidity;BME280_pressure;Samples;Min_cycle;Max_cycle;Signal;HPM_P1;HPM_P2
2024/01/01 00:00:04;;;;;;;25.20;15.00;;;;;;;;;;4957049;29;20215;-83
2024/01/01 00:03:16;;;;;;;23.57;14.33;;;;;;;;;;4957403;29;20550;-83
2024/01/01 00:06:20;;;;;;;23.97;13.90;;;;;;;;;;4957822;29;20188;-83
2024/01/01 00:09:24;;;;;;;19.13;12.80;;;;;;;;;;4959482;29;20183;-83
2024/01/01 00:12:28;;;;;;;18.80;13.30;;;;;;;;;;4946457;29;20188;-83
2024/01/01 00:15:32;;;;;;;20.33;13.37;;;;;;;;;;4958224;29;20184;-83
2024/01/01 00:18:38;;;;;;;19.93;12.97;;;;;;;;;;4957634;29;20191;-83
2024/01/01 00:21:42;;;;;;;17.97;12.70;;;;;;;;;;4957952;29;20207;-83
2024/01/01 00:24:47;;;;;;;20.90;12.83;;;;;;;;;;4946505;29;20191;-83
2024/01/01 00:27:51;;;;;;;18.63;11.87;;;;;;;;;;4958844;29;20187;-83
2024/01/01 00:30:56;;;;;;;16.27;10.97;;;;;;;;;;4957359;29;20215;-83
2024/01/01 00:34:00;;;;;;;18.80;12.10;;;;;;;;;;4946792;29;20188;-83
2024/01/01 00:37:04;;;;;;;18.73;11.23;;;;;;;;;;4958776;29;20183;-83
2024/01/01 00:40:09;;;;;;;20.07;11.67;;;;;;;;;;4959544;29;20231;-83
2024/01/01 00:43:13;;;;;;;16.00;10.50;;;;;;;;;;4960662;29;20184;-83
2024/01/01 00:46:18;;;;;;;16.80;10.47;;;;;;;;;;4959781;29;20640;-83
2024/01/01 00:49:22;;;;;;;14.90;10.53;;;;;;;;;;4958669;29;20183;-83
2024/01/01 00:52:26;;;;;;;18.20;10.83;;;;;;;;;;4936426;29;20191;-83
2024/01/01 00:55:31;;;;;;;14.97;10.27;;;;;;;;;;4956212;29;20183;-83
2024/01/01 00:58:36;;;;;;;14.33;9.73;;;;;;;;;;4934826;29;20187;-83
2024/01/01 01:01:40;;;;;;;15.97;9.90;;;;;;;;;;4956818;29;20219;-83
2024/01/01 01:04:46;;;;;;;14.63;9.87;;;;;;;;;;4946355;29;20184;-83
2024/01/01 01:07:50;;;;;;;15.20;9.93;;;;;;;;;;4934709;29;20184;-83
2024/01/01 01:10:55;;;;;;;16.57;10.30;;;;;;;;;;4946186;29;20214;-83
2024/01/01 01:13:59;;;;;;;17.10;11.07;;;;;;;;;;4956831;29;20525;-83
2024/01/01 01:17:03;;;;;;;15.27;10.47;;;;;;;;;;4956208;29;20534;-83
2024/01/01 01:20:08;;;;;;;18.53;11.23;;;;;;;;;;4956982;29;20700;-83
2024/01/01 01:23:13;;;;;;;17.90;11.60;;;;;;;;;;4958228;29;20183;-83
2024/01/01 01:26:17;;;;;;;14.63;10.20;;;;;;;;;;4945706;29;20180;-83
2024/01/01 01:29:21;;;;;;;18.07;11.00;;;;;;;;;;4957037;29;20632;-83
2024/01/01 01:32:25;;;;;;;18.47;10.63;;;;;;;;;;4945771;29;20184;-83
2024/01/01 01:35:29;;;;;;;17.70;10.80;;;;;;;;;;4934646;29;20187;-83
2024/01/01 01:38:35;;;;;;;16.60;10.03;;;;;;;;;;4957450;29;20625;-83
2024/01/01 01:41:39;;;;;;;14.97;10.33;;;;;;;;;;4945618;29;20231;-83
2024/01/01 01:44:43;;;;;;;18.10;10.87;;;;;;;;;;4957771;29;20519;-83
2024/01/01 01:47:47;;;;;;;14.50;10.27;;;;;;;;;;4956434;29;20192;-83
2024/01/01 01:50:52;;;;;;;15.73;9.40;;;;;;;;;;4955525;29;20227;-82
2024/01/01 01:53:58;;;;;;;13.93;8.83;;;;;;;;;;4955271;29;20184;-84
2024/01/01 01:57:04;;;;;;;12.30;8.50;;;;;;;;;;4936839;29;20217;-84
2024/01/01 02:00:09;;;;;;;13.67;9.03;;;;;;;;;;4943582;29;20699;-84
2024/01/01 02:03:17;;;;;;;13.33;9.10;;;;;;;;;;4955964;29;20187;-83
2024/01/01 02:06:21;;;;;;;13.70;8.37;;;;;;;;;;4933526;29;20180;-83
2024/01/01 02:09:26;;;;;;;13.13;8.73;;;;;;;;;;4943984;29;20183;-83
2024/01/01 02:12:30;;;;;;;12.37;8.30;;;;;;;;;;4944246;29;20184;-83
2024/01/01 02:15:34;;;;;;;13.37;8.27;;;;;;;;;;4955372;29;20187;-83
2024/01/01 02:18:40;;;;;;;10.73;7.20;;;;;;;;;;4955339;29;20183;-83
2024/01/01 02:21:44;;;;;;;11.83;6.50;;;;;;;;;;4943818;28;20696;-83
2024/01/01 02:24:48;;;;;;;8.73;5.17;;;;;;;;;;4944188;29;20188;-83
2024/01/01 02:27:52;;;;;;;8.13;4.33;;;;;;;;;;4956072;29;20184;-83
2024/01/01 02:30:56;;;;;;;6.43;4.37;;;;;;;;;;4955580;29;20211;-83
2024/01/01 02:34:01;;;;;;;8.57;4.63;;;;;;;;;;4954406;29;20183;-83
2024/01/01 02:37:05;;;;;;;5.77;3.70;;;;;;;;;;4954929;29;20176;-83
2024/01/01 02:40:11;;;;;;;7.27;4.20;;;;;;;;;;4955143;29;20694;-83
2024/01/01 02:43:15;;;;;;;5.63;3.80;;;;;;;;;;4954524;29;20190;-83
2024/01/01 02:46:19;;;;;;;6.27;3.60;;;;;;;;;;4954916;29;20179;-83
2024/01/01 02:49:23;;;;;;;6.20;3.53;;;;;;;;;;4943483;29;20180;-83
2024/01/01 02:52:28;;;;;;;6.80;3.87;;;;;;;;;;4943250;29;20176;-83
2024/01/01 02:55:32;;;;;;;7.57;4.30;;;;;;;;;;4943562;29;20188;-83
2024/01/01 02:58:36;;;;;;;6.23;4.30;;;;;;;;;;4943715;29;20187;-83
2024/01/01 03:01:41;;;;;;;6.90;4.60;;;;;;;;;;4954504;29;20227;-83
2024/01/01 03:04:45;;;;;;;6.63;4.23;;;;;;;;;;4944363;29;20648;-83
2024/01/01 03:07:49;;;;;;;7.63;4.23;;;;;;;;;;4954675;29;20188;-83
2024/01/01 03:10:53;;;;;;;7.87;4.30;;;;;;;;;;4945592;29;20215;-83
2024/01/01 03:13:57;;;;;;;7.03;4.43;;;;;;;;;;4946741;29;20191;-83
2024/01/01 03:17:02;;;;;;;6.70;4.57;;;;;;;;;;4936061;29;20628;-83
2024/01/01 03:20:06;;;;;;;6.93;4.33;;;;;;;;;;4935593;29;20223;-83
2024/01/01 03:23:10;;;;;;;7.13;4.27;;;;;;;;;;4946983;29;20184;-83
2024/01/01 03:26:17;;;;;;;5.87;4.17;;;;;;;;;;4957395;29;20184;-83
2024/01/01 03:29:21;;;;;;;6.47;4.07;;;;;;;;;;4957742;29;20188;-83
2024/01/01 03:32:25;;;;;;;8.20;3.90;;;;;;;;;;4957652;29;20183;-83
2024/01/01 03:35:31;;;;;;;7.90;4.10;;;;;;;;;;4934972;29;20187;-83
2024/01/01 03:38:35;;;;;;;7.07;4.30;;;;;;;;;;4935329;29;20636;-83
2024/01/01 03:41:40;;;;;;;6.10;4.07;;;;;;;;;;4957502;29;20223;-83
2024/01/01 03:44:44;;;;;;;6.93;3.53;;;;;;;;;;4957895;29;20192;-83
2024/01/01 03:47:48;;;;;;;8.00;3.63;;;;;;;;;;4945955;29;20187;-83
2024/01/01 03:50:53;;;;;;;4.70;3.20;;;;;;;;;;4957044;28;20226;-84
2024/01/01 03:53:57;;;;;;;6.30;3.67;;;;;;;;;;4958555;29;20188;-84
2024/01/01 03:57:01;;;;;;;6.70;4.17;;;;;;;;;;4958850;29;20179;-83
2024/01/01 04:00:08;;;;;;;5.57;4.00;;;;;;;;;;4946852;29;20191;-84
2024/01/01 04:03:12;;;;;;;5.57;4.13;;;;;;;;;;4946789;29;20652;-84
2024/01/01 04:06:16;;;;;;;5.50;3.80;;;;;;;;;;4957839;29;20188;-84
2024/01/01 04:09:20;;;;;;;7.27;4.30;;;;;;;;;;4957702;29;20632;-84
2024/01/01 04:12:24;;;;;;;4.57;3.70;;;;;;;;;;4946311;29;20171;-84
2024/01/01 04:15:28;;;;;;;7.77;4.33;;;;;;;;;;4957605;29;20188;-84
2024/01/01 04:18:32;;;;;;;6.63;3.90;;;;;;;;;;4935213;29;20188;-84
2024/01/01 04:21:40;;;;;;;7.77;4.20;;;;;;;;;;4944830;28;20227;-84
2024/01/01 04:24:45;;;;;;;9.07;4.77;;;;;;;;;;4957560;29;20188;-84
2024/01/01 04:27:49;;;;;;;7.87;4.47;;;;;;;;;;4956807;29;20544;-84
2024/01/01 04:30:54;;;;;;;7.43;4.80;;;;;;;;;;4935053;29;20215;-84
2024/01/01 04:33:58;;;;;;;6.73;4.53;;;;;;;;;;4956917;29;20180;-84
2024/01/01 04:37:02;;;;;;;8.43;5.10;;;;;;;;;;4956755;29;20629;-84
2024/01/01 04:40:07;;;;;;;6.80;4.37;;;;;;;;;;4957097;29;20219;-84
2024/01/01 04:43:11;;;;;;;9.60;4.60;;;;;;;;;;4956969;29;20176;-84
2024/01/01 04:46:15;;;;;;;8.53;4.90;;;;;;;;;;4957591;29;20180;-84
2024/01/01 04:49:19;;;;;;;8.17;5.20;;;;;;;;;;4946832;29;20187;-84
2024/01/01 04:52:23;;;;;;;6.83;4.70;;;;;;;;;;4945156;29;20180;-84
2024/01/01 04:55:27;;;;;;;11.17;4.30;;;;;;;;;;4956625;29;20195;-84
2024/01/01 04:58:33;;;;;;;7.60;4.50;;;;;;;;;;4958503;29;20180;-84
2024/01/01 05:01:38;;;;;;;12.43;4.87;;;;;;;;;;4958066;29;20228;-84
2024/01/01 05:04:42;;;;;;;7.60;4.13;;;;;;;;;;4958212;29;20188;-84
2024/01/01 05:07:47;;;;;;;9.67;4.27;;;;;;;;;;4957589;29;20187;-84
2024/01/01 05:10:51;;;;;;;7.97;4.37;;;;;;;;;;4934913;29;20711;-84
2024/01/01 05:13:55;;;;;;;8.93;4.17;;;;;;;;;;4934227;29;20184;-84
2024/01/01 05:17:00;;;;;;;5.63;3.67;;;;;;;;;;4956819;29;20187;-84
2024/01/01 05:20:05;;;;;;;6.00;3.83;;;;;;;;;;4944955;29;20180;-84
2024/01/01 05:23:09;;;;;;;7.10;4.40;;;;;;;;;;4957337;29;20184;-84
2024/01/01 05:26:13;;;;;;;11.27;5.20;;;;;;;;;;4934274;29;20187;-84
2024/01/01 05:29:17;;;;;;;7.80;4.40;;;;;;;;;;4956022;29;20187;-84
2024/01/01 05:32:21;;;;;;;8.63;3.83;;;;;;;;;;4955934;29;20180;-84
2024/01/01 05:35:26;;;;;;;7.17;4.00;;;;;;;;;;4955615;29;20188;-84
2024/01/01 05:38:30;;;;;;;6.07;3.50;;;;;;;;;;4956982;29;20630;-84
2024/01/01 05:41:34;;;;;;;6.07;3.50;;;;;;;;;;4955743;29;20689;-84
2024/01/01 05:44:38;;;;;;;7.53;3.37;;;;;;;;;;4945956;29;20183;-84
2024/01/01 05:47:44;;;;;;;5.50;3.03;;;;;;;;;;4945327;29;20639;-84
2024/01/01 05:50:48;;;;;;;6.63;3.60;;;;;;;;;;4955973;29;20226;-84
2024/01/01 05:53:52;;;;;;;7.20;3.20;;;;;;;;;;4956208;29;20179;-84
2024/01/01 05:56:56;;;;;;;4.97;3.30;;;;;;;;;;4944838;29;20613;-84
2024/01/01 06:00:01;;;;;;;6.43;2.77;;;;;;;;;;4955895;29;20184;-84
2024/01/01 06:03:08;;;;;;;5.47;3.20;;;;;;;;;;4957375;29;20223;-84
2024/01/01 06:06:15;;;;;;;3.77;2.80;;;;;;;;;;4956985;29;20180;-84
2024/01/01 06:09:19;;;;;;;4.70;3.00;;;;;;;;;;4944485;29;20188;-84
2024/01/01 06:12:24;;;;;;;5.43;2.80;;;;;;;;;;4956048;29;20184;-84
2024/01/01 06:15:28;;;;;;;5.70;3.10;;;;;;;;;;4945304;29;20183;-84
2024/01/01 06:18:32;;;;;;;5.23;2.80;;;;;;;;;;4949048;28;20194;-84
2024/01/01 06:21:36;;;;;;;6.13;2.97;;;;;;;;;;4974957;28;20226;-84
2024/01/01 06:24:40;;;;;;;5.17;2.77;;;;;;;;;;4974681;28;20186;-84
2024/01/01 06:27:44;;;;;;;6.27;2.87;;;;;;;;;;4975963;28;20187;-84
2024/01/01 06:30:48;;;;;;;4.10;2.40;;;;;;;;;;4974776;28;20218;-84
2024/01/01 06:33:53;;;;;;;3.77;2.50;;;;;;;;;;4975415;28;20183;-84
2024/01/01 06:36:57;;;;;;;4.17;2.73;;;;;;;;;;4974246;28;20183;-84
2024/01/01 06:40:03;;;;;;;3.53;2.53;;;;;;;;;;4975099;28;20648;-84
2024/01/01 06:43:07;;;;;;;4.90;2.37;;;;;;;;;;4975020;28;20210;-84
2024/01/01 06:46:12;;;;;;;4.67;2.90;;;;;;;;;;4965660;28;20190;-84
2024/01/01 06:49:16;;;;;;;4.70;2.67;;;;;;;;;;4966818;28;20183;-84
2024/01/01 06:52:20;;;;;;;5.00;2.60;;;;;;;;;;4978021;28;20175;-84
2024/01/01 06:55:25;;;;;;;4.53;2.50;;;;;;;;;;4977253;28;20179;-84
2024/01/01 06:58:29;;;;;;;4.90;2.50;;;;;;;;;;4978081;28;20183;-84
2024/01/01 07:01:33;;;;;;;4.07;2.40;;;;;;;;;;4966172;28;20223;-84
2024/01/01 07:04:38;;;;;;;131.50;50.73;;;;;;;;;;4976992;28;20628;-84
2024/01/01 07:07:42;;;;;;;28.83;15.73;;;;;;;;;;4976689;28;20193;-84
2024/01/01 07:10:48;;;;;;;30.97;19.10;;;;;;;;;;4965684;28;20248;-84
2024/01/01 07:13:51;;;;;;;6.93;4.73;;;;;;;;;;4977998;28;20179;-84
2024/01/01 07:16:55;;;;;;;4.20;2.80;;;;;;;;;;4956593;28;20178;-84
2024/01/01 07:20:00;;;;;;;3.60;2.33;;;;;;;;;;4977537;28;20187;-84
2024/01/01 07:23:04;;;;;;;3.43;2.20;;;;;;;;;;4978473;28;20211;-84
2024/01/01 07:26:09;;;;;;;3.57;2.80;;;;;;;;;;4976639;28;20183;-83
2024/01/01 07:29:13;;;;;;;3.87;2.40;;;;;;;;;;4976398;28;20179;-84
2024/01/01 07:32:17;;;;;;;4.37;2.03;;;;;;;;;;4977020;28;20183;-84
2024/01/01 07:35:21;;;;;;;4.57;2.33;;;;;;;;;;4977440;28;20191;-84
2024/01/01 07:38:26;;;;;;;64.93;32.50;;;;;;;;;;4977326;28;20187;-84
2024/01/01 07:41:30;;;;;;;12.20;7.07;;;;;;;;;;4977385;28;20219;-84
2024/01/01 07:44:34;;;;;;;5.37;2.30;;;;;;;;;;4959263;28;20183;-83
2024/01/01 07:47:38;;;;;;;4.03;1.53;;;;;;;;;;4977625;28;20187;-84
2024/01/01 07:50:43;;;;;;;2.40;1.67;;;;;;;;;;4977664;28;20234;-83
2024/01/01 07:53:48;;;;;;;4.60;1.57;;;;;;;;;;4978512;28;20551;-83
2024/01/01 07:56:52;;;;;;;3.10;1.20;;;;;;;;;;4978034;28;20187;-84
2024/01/01 07:59:58;;;;;;;3.13;1.60;;;;;;;;;;4966166;28;20187;-84
2024/01/01 08:03:02;;;;;;;2.23;1.43;;;;;;;;;;4970729;28;20214;-82
2024/01/01 08:06:06;;;;;;;5.43;1.30;;;;;;;;;;4954133;28;20227;-84
2024/01/01 08:09:10;;;;;;;3.40;1.20;;;;;;;;;;4964419;28;20547;-84
2024/01/01 08:12:15;;;;;;;1.73;1.30;;;;;;;;;;4964659;28;20183;-84
2024/01/01 08:15:19;;;;;;;2.93;1.30;;;;;;;;;;4976390;28;20183;-84
2024/01/01 08:18:24;;;;;;;2.23;1.30;;;;;;;;;;4977282;28;20185;-84
2024/01/01 08:21:29;;;;;;;3.93;1.30;;;;;;;;;;4976603;28;20218;-84
2024/01/01 08:24:33;;;;;;;3.93;1.60;;;;;;;;;;4975877;28;20543;-84
2024/01/01 08:27:37;;;;;;;4.00;1.17;;;;;;;;;;4976089;28;20183;-84
2024/01/01 08:30:43;;;;;;;3.60;1.10;;;;;;;;;;4963905;28;20219;-84
2024/01/01 08:33:47;;;;;;;3.93;1.03;;;;;;;;;;4974558;28;20183;-84
2024/01/01 08:36:52;;;;;;;1.27;1.00;;;;;;;;;;4975301;28;20183;-84
2024/01/01 08:39:56;;;;;;;2.13;1.03;;;;;;;;;;4975439;28;20183;-84
2024/01/01 08:43:00;;;;;;;1.83;0.83;;;;;;;;;;4974466;28;20218;-84
2024/01/01 08:46:05;;;;;;;2.77;1.30;;;;;;;;;;4975104;28;20183;-84
2024/01/01 08:49:10;;;;;;;3.43;1.10;;;;;;;;;;4953174;28;20195;-84
2024/01/01 08:52:14;;;;;;;3.27;1.00;;;;;;;;;;4975597;28;20191;-83
2024/01/01 08:55:19;;;;;;;4.33;1.83;;;;;;;;;;4974884;28;20656;-84
2024/01/01 08:58:25;;;;;;;4.00;1.83;;;;;;;;;;4974909;28;20179;-84
2024/01/01 09:01:28;;;;;;;2.47;1.10;;;;;;;;;;4974175;28;20218;-84
2024/01/01 09:04:33;;;;;;;3.07;1.23;;;;;;;;;;4974355;28;20179;-84
2024/01/01 09:07:37;;;;;;;3.37;1.30;;;;;;;;;;4974499;28;20183;-83
2024/01/01 09:10:42;;;;;;;3.17;1.23;;;;;;;;;;4974612;28;20223;-83
2024/01/01 09:13:46;;;;;;;3.47;1.70;;;;;;;;;;4952276;28;20179;-84
2024/01/01 09:16:50;;;;;;;5.17;1.23;;;;;;;;;;4975799;28;20191;-83
2024/01/01 09:19:54;;;;;;;4.70;1.23;;;;;;;;;;4974814;28;20179;-84
2024/01/01 09:22:58;;;;;;;5.57;1.10;;;;;;;;;;4972998;28;20599;-83
2024/01/01 09:26:02;;;;;;;5.07;1.47;;;;;;;;;;4973847;28;20183;-83
2024/01/01 09:29:06;;;;;;;4.03;1.50;;;;;;;;;;4974213;28;20179;-82
2024/01/01 09:32:11;;;;;;;2.63;1.73;;;;;;;;;;4961659;28;20210;-83
2024/01/01 09:35:15;;;;;;;3.97;1.80;;;;;;;;;;4973819;28;20186;-83
2024/01/01 09:38:19;;;;;;;5.73;2.03;;;;;;;;;;4977971;28;20187;-83
2024/01/01 09:41:25;;;;;;;3.57;1.90;;;;;;;;;;4975892;28;20215;-83
2024/01/01 09:44:29;;;;;;;4.60;1.50;;;;;;;;;;4973919;28;20179;-83
2024/01/01 09:47:33;;;;;;;9.10;1.73;;;;;;;;;;4963550;28;20183;-83
2024/01/01 09:50:37;;;;;;;3.80;1.40;;;;;;;;;;4974479;28;20230;-83
2024/01/01 09:53:45;;;;;;;19.20;9.97;;;;;;;;;;4962999;28;20191;-84
2024/01/01 09:56:49;;;;;;;8.90;4.20;;;;;;;;;;4974821;28;20523;-84
2024/01/01 09:59:55;;;;;;;5.53;3.17;;;;;;;;;;4975326;28;20186;-84
2024/01/01 10:03:10;;;;;;;5.27;2.37;;;;;;;;;;4977340;28;20211;-84
2024/01/01 10:06:14;;;;;;;4.63;1.73;;;;;;;;;;4976751;28;20187;-84
2024/01/01 10:09:18;;;;;;;6.87;2.70;;;;;;;;;;4977579;28;20183;-84
2024/01/01 10:12:23;;;;;;;3.93;1.70;;;;;;;;;;4976755;28;20186;-84
2024/01/01 10:15:28;;;;;;;38.10;19.87;;;;;;;;;;4977797;28;20183;-84
2024/01/01 10:18:32;;;;;;;10.33;5.03;;;;;;;;;;4977431;28;20179;-84
2024/01/01 10:21:38;;;;;;;4.07;1.80;;;;;;;;;;4983975;28;20222;-84
2024/01/01 10:24:42;;;;;;;5.07;1.50;;;;;;;;;;4980548;28;20183;-84
2024/01/01 10:27:47;;;;;;;1.60;1.10;;;;;;;;;;4980899;28;20179;-84
2024/01/01 10:30:52;;;;;;;4.07;1.53;;;;;;;;;;4966919;28;20226;-83
2024/01/01 10:33:59;;;;;;;5.70;1.17;;;;;;;;;;4980424;28;20563;-83
2024/01/01 10:37:04;;;;;;;4.60;1.30;;;;;;;;;;4979655;28;20182;-83
2024/01/01 10:40:14;;;;;;;2.53;1.07;;;;;;;;;;4979936;28;20222;-83
2024/01/01 10:43:22;;;;;;;4.53;1.30;;;;;;;;;;4982952;28;20203;-84
2024/01/01 10:46:27;;;;;;;3.57;1.30;;;;;;;;;;4983730;28;20636;-84
2024/01/01 10:49:31;;;;;;;2.50;1.23;;;;;;;;;;4984986;28;20191;-84
2024/01/01 10:52:45;;;;;;;4.33;1.80;;;;;;;;;;4972803;28;20179;-84
2024/01/01 10:56:29;;;;;;;4.37;2.03;;;;;;;;;;4961443;28;20179;-84
2024/01/01 10:59:44;;;;;;;3.93;1.00;;;;;;;;;;4985033;28;20547;-84
2024/01/01 11:02:49;;;;;;;4.33;1.33;;;;;;;;;;4985110;28;20212;-84
2024/01/01 11:05:53;;;;;;;3.33;1.00;;;;;;;;;;4984945;28;20187;-84
2024/01/01 11:09:18;;;;;;;4.13;1.07;;;;;;;;;;4961022;28;20191;-85
2024/01/01 11:12:34;;;;;;;4.80;1.83;;;;;;;;;;4983662;28;20183;-84
2024/01/01 11:15:48;;;;;;;4.93;1.20;;;;;;;;;;4960679;28;20179;-84
2024/01/01 11:18:52;;;;;;;4.33;1.13;;;;;;;;;;4983558;28;20179;-84
2024/01/01 11:21:57;;;;;;;4.80;1.10;;;;;;;;;;4971406;28;20227;-84
2024/01/01 11:25:02;;;;;;;3.50;1.10;;;;;;;;;;4982048;28;20646;-84
2024/01/01 11:28:06;;;;;;;4.50;1.30;;;;;;;;;;4982233;28;20191;-84
2024/01/01 11:31:12;;;;;;;6.53;3.57;;;;;;;;;;4985090;28;20218;-84
2024/01/01 11:34:17;;;;;;;3.77;1.20;;;;;;;;;;4984141;28;20183;-84
2024/01/01 11:37:21;;;;;;;4.97;1.60;;;;;;;;;;4984341;28;20191;-84
2024/01/01 11:40:28;;;;;;;2.13;1.10;;;;;;;;;;4983931;28;20222;-84
2024/01/01 11:43:33;;;;;;;6.17;2.20;;;;;;;;;;4981766;28;20214;-84
2024/01/01 11:46:38;;;;;;;3.27;1.20;;;;;;;;;;4981858;28;20183;-84
2024/01/01 11:49:42;;;;;;;5.23;2.23;;;;;;;;;;4982301;28;20183;-84
2024/01/01 11:52:59;;;;;;;4.50;1.40;;;;;;;;;;4981518;28;20175;-84
2024/01/01 11:56:07;;;;;;;4.47;1.37;;;;;;;;;;4981336;28;20647;-84
2024/01/01 11:59:13;;;;;;;3.13;1.50;;;;;;;;;;4981463;28;20183;-84
2024/01/01 12:02:18;;;;;;;3.53;1.40;;;;;;;;;;4981407;28;20186;-84
2024/01/01 12:05:22;;;;;;;2.50;1.10;;;;;;;;;;4980954;28;20183;-84
2024/01/01 12:08:27;;;;;;;2.43;1.00;;;;;;;;;;4969842;28;20183;-84
2024/01/01 12:11:32;;;;;;;3.03;1.00;;;;;;;;;;4980753;28;20222;-84
2024/01/01 12:14:36;;;;;;;3.53;1.20;;;;;;;;;;4980855;28;20179;-84
2024/01/01 12:17:51;;;;;;;9.50;4.67;;;;;;;;;;4969505;28;20179;-84
2024/01/01 12:20:58;;;;;;;3.30;1.23;;;;;;;;;;4980041;28;20223;-84
2024/01/01 12:24:03;;;;;;;3.13;1.30;;;;;;;;;;4979633;28;20218;-84
2024/01/01 12:27:09;;;;;;;4.13;1.20;;;;;;;;;;4979192;28;20183;-84
2024/01/01 12:30:24;;;;;;;13.47;9.23;;;;;;;;;;4978966;28;20218;-84
2024/01/01 12:33:30;;;;;;;7.00;3.90;;;;;;;;;;4979023;28;20175;-84
2024/01/01 12:36:35;;;;;;;21.37;10.90;;;;;;;;;;4978173;28;20187;-84
2024/01/01 12:39:39;;;;;;;5.53;1.53;;;;;;;;;;4978693;28;20191;-84
2024/01/01 12:42:44;;;;;;;3.13;1.20;;;;;;;;;;4976623;28;20183;-84
2024/01/01 12:45:48;;;;;;;3.57;0.90;;;;;;;;;;4978435;28;20171;-84
2024/01/01 12:48:52;;;;;;;1.80;0.90;;;;;;;;;;4977549;28;20858;-83
2024/01/01 12:51:57;;;;;;;1.77;0.93;;;;;;;;;;4966318;28;20226;-82
2024/01/01 12:55:02;;;;;;;3.80;1.13;;;;;;;;;;4978454;28;20179;-84
2024/01/01 12:58:06;;;;;;;2.67;1.00;;;;;;;;;;4977520;28;20540;-84
2024/01/01 13:01:11;;;;;;;2.00;0.70;;;;;;;;;;4966059;28;20218;-84
2024/01/01 13:04:15;;;;;;;1.63;0.70;;;;;;;;;;4977017;28;20215;-84
2024/01/01 13:07:19;;;;;;;2.27;1.00;;;;;;;;;;4976355;28;20183;-84
2024/01/01 13:10:23;;;;;;;4.40;0.97;;;;;;;;;;4976289;28;20218;-84
2024/01/01 13:13:28;;;;;;;8.83;4.50;;;;;;;;;;4980213;28;20179;-84
2024/01/01 13:16:31;;;;;;;4.33;1.97;;;;;;;;;;4972221;28;20183;-84
2024/01/01 13:19:36;;;;;;;7.30;3.13;;;;;;;;;;4968170;28;20183;-84
2024/01/01 13:22:41;;;;;;;8.87;4.73;;;;;;;;;;4980513;28;20187;-84
2024/01/01 13:25:55;;;;;;;3.97;1.40;;;;;;;;;;4973741;28;20183;-84
2024/01/01 13:29:16;;;;;;;5.70;1.80;;;;;;;;;;4974927;28;20179;-85
2024/01/01 13:32:20;;;;;;;3.83;1.40;;;;;;;;;;4979305;28;20182;-85
2024/01/01 13:35:24;;;;;;;3.07;1.30;;;;;;;;;;4977443;28;20174;-85
2024/01/01 13:38:29;;;;;;;2.90;1.40;;;;;;;;;;4978182;28;20183;-85
2024/01/01 13:41:34;;;;;;;4.67;1.30;;;;;;;;;;4978876;28;20212;-85
2024/01/01 13:44:38;;;;;;;3.03;1.00;;;;;;;;;;4978273;28;20210;-85
2024/01/01 13:47:42;;;;;;;3.83;2.40;;;;;;;;;;4977640;28;20182;-85
2024/01/01 13:50:46;;;;;;;2.53;1.03;;;;;;;;;;4978064;28;20230;-85
2024/01/01 13:53:50;;;;;;;5.33;1.70;;;;;;;;;;4965326;28;20183;-85
2024/01/01 13:56:54;;;;;;;4.50;1.10;;;;;;;;;;4977343;28;20524;-85
2024/01/01 13:59:59;;;;;;;3.03;1.50;;;;;;;;;;4965460;28;20179;-85
2024/01/01 14:03:03;;;;;;;9.10;5.37;;;;;;;;;;4966185;28;20183;-85
2024/01/01 14:06:08;;;;;;;4.00;2.20;;;;;;;;;;4955201;28;20175;-86
2024/01/01 14:09:12;;;;;;;3.23;1.83;;;;;;;;;;4977547;28;20187;-85
2024/01/01 14:12:16;;;;;;;7.83;1.57;;;;;;;;;;4976791;28;20193;-85
2024/01/01 14:15:23;;;;;;;3.17;1.47;;;;;;;;;;4977456;28;20552;-85
2024/01/01 14:18:27;;;;;;;2.83;0.97;;;;;;;;;;4965534;28;20191;-85
2024/01/01 14:21:32;;;;;;;6.53;2.93;;;;;;;;;;4978025;28;20226;-85
2024/01/01 14:24:36;;;;;;;11.80;5.93;;;;;;;;;;4967355;28;20211;-85
2024/01/01 14:27:44;;;;;;;5.43;1.40;;;;;;;;;;4976784;28;20528;-85
2024/01/01 14:30:52;;;;;;;8.13;2.53;;;;;;;;;;4976646;28;20218;-85
2024/01/01 14:33:56;;;;;;;5.33;2.20;;;;;;;;;;4965388;28;20179;-85
2024/01/01 14:37:01;;;;;;;10.73;6.93;;;;;;;;;;4977096;28;20187;-85
2024/01/01 14:40:06;;;;;;;12.37;8.37;;;;;;;;;;4977323;28;20179;-85
2024/01/01 14:43:12;;;;;;;9.27;4.83;;;;;;;;;;4965376;28;20632;-85
2024/01/01 14:46:17;;;;;;;8.30;3.73;;;;;;;;;;4953221;28;20183;-85
2024/01/01 14:49:21;;;;;;;5.37;1.53;;;;;;;;;;4973706;28;20187;-85
2024/01/01 14:52:25;;;;;;;7.90;3.10;;;;;;;;;;4974859;28;20183;-85
2024/01/01 14:55:29;;;;;;;6.27;2.80;;;;;;;;;;4974517;28;20180;-85
2024/01/01 14:58:35;;;;;;;2.60;1.17;;;;;;;;;;4974386;28;20187;-85
2024/01/01 15:01:41;;;;;;;4.70;1.30;;;;;;;;;;4974868;28;20587;-85
2024/01/01 15:04:45;;;;;;;4.33;2.10;;;;;;;;;;4973929;28;20567;-85
2024/01/01 15:07:49;;;;;;;4.00;1.30;;;;;;;;;;4978338;28;20183;-85
2024/01/01 15:10:54;;;;;;;8.03;3.50;;;;;;;;;;4976637;28;20219;-85
2024/01/01 15:13:58;;;;;;;6.70;3.40;;;;;;;;;;4978744;28;20180;-85
2024/01/01 15:17:05;;;;;;;9.77;5.53;;;;;;;;;;4966792;28;20191;-85
2024/01/01 15:20:10;;;;;;;7.63;5.07;;;;;;;;;;4977570;28;20215;-85
2024/01/01 15:23:14;;;;;;;5.73;2.47;;;;;;;;;;4966689;28;20191;-85
2024/01/01 15:26:22;;;;;;;8.57;3.07;;;;;;;;;;4977282;28;20176;-85
2024/01/01 15:29:27;;;;;;;6.57;2.20;;;;;;;;;;4977742;28;20628;-85
2024/01/01 15:32:31;;;;;;;4.87;2.57;;;;;;;;;;4965773;28;20187;-85
2024/01/01 15:35:35;;;;;;;17.87;7.77;;;;;;;;;;4977198;28;20179;-85
2024/01/01 15:38:40;;;;;;;5.80;3.17;;;;;;;;;;4976810;28;20187;-85
2024/01/01 15:41:45;;;;;;;4.27;1.77;;;;;;;;;;4976444;28;20214;-85
2024/01/01 15:44:49;;;;;;;10.77;7.23;;;;;;;;;;4965417;28;20207;-85
2024/01/01 15:47:53;;;;;;;18.00;11.07;;;;;;;;;;4975460;28;20179;-85
2024/01/01 15:51:00;;;;;;;7.30;6.37;;;;;;;;;;4976067;28;20230;-85
2024/01/01 15:54:04;;;;;;;6.67;3.07;;;;;;;;;;4953566;28;20187;-85
2024/01/01 15:57:09;;;;;;;2.47;1.80;;;;;;;;;;4977422;28;20183;-84
2024/01/01 16:00:14;;;;;;;2.47;1.30;;;;;;;;;;4977787;28;20214;-84
2024/01/01 16:03:18;;;;;;;5.23;1.50;;;;;;;;;;4978538;28;20179;-84
2024/01/01 16:06:23;;;;;;;7.37;1.83;;;;;;;;;;4978035;28;20179;-84
2024/01/01 16:09:28;;;;;;;3.30;1.80;;;;;;;;;;4976474;28;20179;-84
2024/01/01 16:12:33;;;;;;;4.87;3.60;;;;;;;;;;4977795;28;20182;-84
2024/01/01 16:15:43;;;;;;;4.20;2.77;;;;;;;;;;4976649;28;20180;-84
2024/01/01 16:18:47;;;;;;;5.50;3.27;;;;;;;;;;4976963;28;20183;-84
2024/01/01 16:21:54;;;;;;;4.93;4.40;;;;;;;;;;4977888;28;20219;-84
2024/01/01 16:24:58;;;;;;;10.83;6.93;;;;;;;;;;4978512;28;20215;-84
2024/01/01 16:28:03;;;;;;;4.47;3.30;;;;;;;;;;4965690;28;20187;-84
2024/01/01 16:31:06;;;;;;;7.60;5.57;;;;;;;;;;4966185;28;20214;-84
2024/01/01 16:34:10;;;;;;;6.47;3.63;;;;;;;;;;4965570;28;20182;-83
2024/01/01 16:37:16;;;;;;;5.03;3.10;;;;;;;;;;4977494;28;20179;-84
2024/01/01 16:40:20;;;;;;;3.43;2.10;;;;;;;;;;4966380;28;20223;-84
2024/01/01 16:43:24;;;;;;;5.43;1.90;;;;;;;;;;4977353;28;20183;-84
2024/01/01 16:46:29;;;;;;;4.23;2.17;;;;;;;;;;4966634;28;20183;-84
2024/01/01 16:49:34;;;;;;;3.17;1.30;;;;;;;;;;4978246;28;20187;-84
2024/01/01 16:52:38;;;;;;;4.60;1.60;;;;;;;;;;4977960;28;20183;-84
2024/01/01 16:55:48;;;;;;;5.13;2.43;;;;;;;;;;4966155;28;20183;-84
2024/01/01 16:58:52;;;;;;;3.93;2.00;;;;;;;;;;4965818;28;20544;-83
2024/01/01 17:01:56;;;;;;;3.47;1.60;;;;;;;;;;4965102;28;20218;-83
2024/01/01 17:05:03;;;;;;;5.50;1.20;;;;;;;;;;4976727;28;20203;-83
2024/01/01 17:08:07;;;;;;;3.80;1.50;;;;;;;;;;4978159;28;20179;-84
2024/01/01 17:11:12;;;;;;;6.90;1.90;;;;;;;;;;4965740;28;20218;-84
2024/01/01 17:14:15;;;;;;;5.87;1.87;;;;;;;;;;4967393;28;20187;-84
2024/01/01 17:17:20;;;;;;;2.83;1.73;;;;;;;;;;4979049;28;20187;-84
2024/01/01 17:20:25;;;;;;;8.10;2.30;;;;;;;;;;4966214;28;20222;-83
2024/01/01 17:23:29;;;;;;;6.77;2.23;;;;;;;;;;4977262;28;20635;-84
2024/01/01 17:26:34;;;;;;;9.90;2.83;;;;;;;;;;4977452;28;20553;-84
2024/01/01 17:29:38;;;;;;;8.40;2.57;;;;;;;;;;4975891;28;20199;-84
2024/01/01 17:32:43;;;;;;;6.27;2.23;;;;;;;;;;4976328;28;20191;-84
2024/01/01 17:35:47;;;;;;;6.23;1.97;;;;;;;;;;4977085;28;20183;-84
2024/01/01 17:38:51;;;;;;;4.60;2.40;;;;;;;;;;4964638;28;20183;-84
2024/01/01 17:41:55;;;;;;;4.70;2.20;;;;;;;;;;4975364;28;20218;-84
2024/01/01 17:44:59;;;;;;;3.67;2.07;;;;;;;;;;4976329;28;20219;-84
2024/01/01 17:48:05;;;;;;;5.37;2.53;;;;;;;;;;4976511;28;20543;-84
2024/01/01 17:51:09;;;;;;;3.07;1.90;;;;;;;;;;4977433;28;20226;-84
2024/01/01 17:54:13;;;;;;;5.10;2.00;;;;;;;;;;4975834;28;20191;-84
2024/01/01 17:57:17;;;;;;;5.00;1.50;;;;;;;;;;4976796;28;20183;-84
2024/01/01 18:00:21;;;;;;;6.37;1.77;;;;;;;;;;4966159;28;20218;-84
2024/01/01 18:03:25;;;;;;;4.27;1.80;;;;;;;;;;4976564;28;20182;-84
2024/01/01 18:06:30;;;;;;;4.47;1.83;;;;;;;;;;4965953;28;20210;-84
2024/01/01 18:09:34;;;;;;;3.00;1.37;;;;;;;;;;4964742;28;20186;-84
2024/01/01 18:12:38;;;;;;;7.63;1.80;;;;;;;;;;4963897;28;20183;-84
2024/01/01 18:15:42;;;;;;;4.03;1.53;;;;;;;;;;4963933;28;20593;-84
2024/01/01 18:18:46;;;;;;;4.83;1.60;;;;;;;;;;4974699;28;20187;-84
2024/01/01 18:21:51;;;;;;;7.37;1.67;;;;;;;;;;4963648;28;20215;-84